createdAt,value
2022-07-25T00:00:44.850Z,100053.81
2022-07-25T00:03:13.471Z,100059.63
2022-07-25T00:05:48.569Z,100053.59
2022-07-25T00:08:17.100Z,100058.78
2022-07-25T00:10:47.622Z,100065.91
2022-07-25T00:13:16.066Z,100071.22
2022-07-25T00:15:47.407Z,100080.69
2022-07-25T00:18:17.317Z,100075.22
2022-07-25T00:20:48.465Z,100072.53
2022-07-25T00:23:18.128Z,100070.47
2022-07-25T00:25:46.493Z,100077.78
2022-07-25T00:28:15.293Z,100081.22
2022-07-25T00:30:44.035Z,100084.88
2022-07-25T00:33:12.553Z,100082.44
2022-07-25T00:35:41.034Z,100084.28
2022-07-25T00:38:12.032Z,100088.47
2022-07-25T00:40:40.545Z,100093.63
2022-07-25T00:43:09.141Z,100095.13
2022-07-25T00:45:46.788Z,100099.16
2022-07-25T00:48:24.440Z,100100.47
2022-07-25T00:50:54.112Z,100097.81
2022-07-25T00:53:24.129Z,100101.47
2022-07-25T00:55:59.717Z,100102.66
2022-07-25T00:58:29.253Z,100099.69
2022-07-25T01:00:58.272Z,100110.31
2022-07-25T01:03:28.446Z,100104.84
2022-07-25T01:06:08.428Z,100101.00
2022-07-25T01:08:38.679Z,100104.59
2022-07-25T01:11:08.743Z,100105.44
2022-07-25T01:13:46.184Z,100101.56
2022-07-25T01:16:16.040Z,100108.03
2022-07-25T01:18:47.666Z,100106.84
2022-07-25T01:21:18.768Z,100108.16
2022-07-25T01:23:48.203Z,100111.28
2022-07-25T01:26:17.853Z,100105.50
2022-07-25T01:28:46.330Z,100115.31
2022-07-25T01:31:16.024Z,100113.66
2022-07-25T01:33:44.649Z,100116.00
2022-07-25T01:36:14.236Z,100116.16
2022-07-25T01:38:45.706Z,100112.66
2022-07-25T01:41:22.524Z,100116.00
2022-07-25T01:43:53.541Z,100121.63
2022-07-25T01:46:24.395Z,100117.84
2022-07-25T01:48:58.908Z,100118.50
2022-07-25T01:51:29.658Z,100122.69
2022-07-25T01:54:00.678Z,100132.47
2022-07-25T01:56:30.390Z,100126.47
2022-07-25T01:59:00.966Z,100132.31
2022-07-25T02:01:29.742Z,100134.28
2022-07-25T02:04:00.107Z,100129.47
2022-07-25T02:06:36.255Z,100131.16
2022-07-25T02:09:07.786Z,100137.69
2022-07-25T02:11:36.604Z,100132.50
2022-07-25T02:14:06.620Z,100132.50
2022-07-25T02:16:37.586Z,100136.50
2022-07-25T02:19:08.927Z,100134.84
2022-07-25T02:21:38.662Z,100142.53
2022-07-25T02:24:12.201Z,100153.66
2022-07-25T02:26:46.654Z,100143.81
2022-07-25T02:29:15.699Z,100151.44
2022-07-25T02:31:53.525Z,100156.41
2022-07-25T02:34:22.045Z,100147.53
2022-07-25T02:36:59.133Z,100151.16
2022-07-25T02:39:37.213Z,100157.81
2022-07-25T02:42:06.122Z,100149.97
2022-07-25T02:44:36.930Z,100156.13
2022-07-25T02:47:07.433Z,100160.31
2022-07-25T02:49:37.039Z,100171.94
2022-07-25T02:52:12.530Z,100172.59
2022-07-25T02:54:42.738Z,100167.44
2022-07-25T02:57:12.236Z,100175.41
2022-07-25T02:59:42.577Z,100176.09
2022-07-25T03:02:12.004Z,100173.44
2022-07-25T03:04:41.733Z,100167.44
2022-07-25T03:07:11.242Z,100169.09
2022-07-25T03:09:40.679Z,100161.97
2022-07-25T03:12:11.766Z,100166.81
2022-07-25T03:14:41.698Z,100169.94
2022-07-25T03:17:10.509Z,100161.31
2022-07-25T03:19:40.586Z,100168.63
2022-07-25T03:22:16.715Z,100175.78
2022-07-25T03:24:45.343Z,100180.63
2022-07-25T03:27:16.590Z,100181.75
2022-07-25T03:29:51.292Z,100171.81
2022-07-25T03:32:25.799Z,100179.47
2022-07-25T03:34:54.650Z,100180.78
2022-07-25T03:37:23.263Z,100179.63
2022-07-25T03:39:54.137Z,100175.38
2022-07-25T03:42:26.823Z,100177.50
2022-07-25T03:44:56.416Z,100188.13
2022-07-25T03:47:26.506Z,100185.47
2022-07-25T03:49:56.006Z,100193.97
2022-07-25T03:52:25.955Z,100191.31
2022-07-25T03:54:55.909Z,100190.31
2022-07-25T03:57:33.122Z,100195.13
2022-07-25T04:00:03.011Z,100206.81
2022-07-25T04:02:31.621Z,100201.97
2022-07-25T04:05:22.645Z,100198.78
2022-07-25T04:08:00.578Z,100206.75
2022-07-25T04:10:29.327Z,100222.88
2022-07-25T04:13:06.344Z,100223.06
2022-07-25T04:15:35.946Z,100228.38
2022-07-25T04:18:06.324Z,100230.38
2022-07-25T04:20:45.196Z,100225.88
2022-07-25T04:23:13.878Z,100234.69
2022-07-25T04:25:48.021Z,100227.25
2022-07-25T04:28:18.690Z,100239.22
2022-07-25T04:30:53.083Z,100241.38
2022-07-25T04:33:24.293Z,100241.03
2022-07-25T04:35:53.051Z,100239.22
2022-07-25T04:38:32.038Z,100238.06
2022-07-25T04:41:07.871Z,100243.19
2022-07-25T04:43:48.703Z,100244.69
2022-07-25T04:46:23.359Z,100252.03
2022-07-25T04:48:56.778Z,100239.22
2022-07-25T04:51:28.475Z,100246.06
2022-07-25T04:53:57.051Z,100241.72
2022-07-25T04:56:39.907Z,100249.19
2022-07-25T04:59:17.910Z,100254.50
2022-07-25T05:01:51.209Z,100255.16
2022-07-25T05:04:20.706Z,100268.16
2022-07-25T05:06:49.455Z,100270.19
2022-07-25T05:09:22.113Z,100274.66
2022-07-25T05:11:56.463Z,100280.53
2022-07-25T05:14:27.819Z,100274.72
2022-07-25T05:16:59.242Z,100274.56
2022-07-25T05:19:28.486Z,100286.94
2022-07-25T05:21:59.381Z,100290.13
2022-07-25T05:24:37.887Z,100288.50
2022-07-25T05:27:07.934Z,100296.13
2022-07-25T05:29:40.248Z,100291.78
2022-07-25T05:32:11.130Z,100293.31
2022-07-25T05:34:39.757Z,100296.25
2022-07-25T05:37:09.387Z,100303.78
2022-07-25T05:39:46.650Z,100298.47
2022-07-25T05:42:15.656Z,100309.09
2022-07-25T05:44:54.445Z,100307.97
2022-07-25T05:47:24.082Z,100305.97
2022-07-25T05:49:52.394Z,100304.47
2022-07-25T05:52:23.224Z,100300.97
2022-07-25T05:54:52.973Z,100305.13
2022-07-25T05:57:21.838Z,100318.91
2022-07-25T05:59:50.284Z,100328.34
2022-07-25T06:02:21.549Z,100327.06
2022-07-25T06:04:50.725Z,100322.59
2022-07-25T06:07:20.605Z,100319.13
2022-07-25T06:09:49.165Z,100323.13
2022-07-25T06:12:17.512Z,100324.34
2022-07-25T06:14:45.943Z,100321.22
2022-07-25T06:17:14.311Z,100330.56
2022-07-25T06:19:44.188Z,100327.59
2022-07-25T06:22:14.662Z,100336.25
2022-07-25T06:24:43.671Z,100337.38
2022-07-25T06:27:14.067Z,100332.53
2022-07-25T06:29:44.688Z,100343.97
2022-07-25T06:32:13.197Z,100349.38
2022-07-25T06:34:44.204Z,100346.97
2022-07-25T06:37:12.700Z,100370.09
2022-07-25T06:39:45.871Z,100357.91
2022-07-25T06:42:15.205Z,100360.22
2022-07-25T06:44:52.410Z,100369.19
2022-07-25T06:47:21.322Z,100375.03
2022-07-25T06:49:51.246Z,100382.28
2022-07-25T06:52:20.053Z,100384.94
2022-07-25T06:54:55.779Z,100383.78
2022-07-25T06:57:27.520Z,100394.94
2022-07-25T06:59:57.666Z,100391.59
2022-07-25T07:02:30.096Z,100389.34
2022-07-25T07:05:05.553Z,100390.00
2022-07-25T07:07:50.276Z,100396.22
2022-07-25T07:10:19.933Z,100386.69
2022-07-25T07:12:49.380Z,100378.09
2022-07-25T07:15:21.936Z,100390.88
2022-07-25T07:17:52.502Z,100387.63
2022-07-25T07:20:25.448Z,100408.25
2022-07-25T07:23:04.597Z,100401.59
2022-07-25T07:25:36.332Z,100399.06
2022-07-25T07:28:09.074Z,100405.00
2022-07-25T07:31:13.380Z,100410.88
2022-07-25T07:33:26.648Z,100411.16
2022-07-25T07:35:58.918Z,100407.94
2022-07-25T07:38:28.009Z,100430.59
2022-07-25T07:40:56.761Z,100427.09
2022-07-25T07:43:29.969Z,100426.09
2022-07-25T07:46:01.557Z,100428.66
2022-07-25T07:48:31.323Z,100428.59
2022-07-25T07:51:06.175Z,100422.22
2022-07-25T07:53:52.182Z,100435.59
2022-07-25T07:56:20.939Z,100441.06
2022-07-25T07:58:49.357Z,100455.00
2022-07-25T08:01:18.132Z,100452.78
2022-07-25T08:03:47.174Z,100463.91
2022-07-25T08:06:17.755Z,100464.13
2022-07-25T08:08:46.497Z,100468.50
2022-07-25T08:11:15.054Z,100471.00
2022-07-25T08:13:43.476Z,100476.16
2022-07-25T08:16:14.023Z,100478.59
2022-07-25T08:18:42.542Z,100477.59
2022-07-25T08:21:11.393Z,100494.22
2022-07-25T08:23:42.621Z,100496.88
2022-07-25T08:26:11.820Z,100499.72
2022-07-25T08:28:40.320Z,100512.50
2022-07-25T08:31:13.688Z,100517.97
2022-07-25T08:33:45.139Z,100511.53
2022-07-25T08:36:13.483Z,100514.03
2022-07-25T08:38:43.669Z,100519.59
2022-07-25T08:41:12.131Z,100514.44
2022-07-25T08:43:41.693Z,100524.44
2022-07-25T08:46:10.513Z,100526.97
2022-07-25T08:48:40.710Z,100537.00
2022-07-25T08:51:10.659Z,100547.56
2022-07-25T08:53:39.914Z,100543.00
2022-07-25T08:56:15.999Z,100550.69
2022-07-25T08:58:46.866Z,100559.22
2022-07-25T09:01:16.190Z,100565.38
2022-07-25T09:03:45.123Z,100578.47
2022-07-25T09:06:19.310Z,100559.94
2022-07-25T09:08:59.818Z,100576.94
2022-07-25T09:11:32.750Z,100586.00
2022-07-25T09:14:05.004Z,100580.28
2022-07-25T09:16:35.527Z,100582.25
2022-07-25T09:19:13.362Z,100571.22
2022-07-25T09:21:44.176Z,100594.81
2022-07-25T09:24:16.841Z,100606.44
2022-07-25T09:26:49.482Z,100610.88
2022-07-25T09:29:20.238Z,100619.47
2022-07-25T09:31:49.108Z,100622.84
2022-07-25T09:34:34.897Z,100619.66
2022-07-25T09:37:05.562Z,100630.00
2022-07-25T09:39:46.025Z,100621.75
2022-07-25T09:42:25.884Z,100628.91
2022-07-25T09:45:06.847Z,100637.13
2022-07-25T09:47:38.847Z,100640.94
2022-07-25T09:50:08.746Z,100645.88
2022-07-25T09:52:39.313Z,100641.94
2022-07-25T09:55:11.214Z,100652.97
2022-07-25T09:57:42.405Z,100640.63
2022-07-25T10:00:17.510Z,100643.69
2022-07-25T10:02:52.417Z,100634.50
2022-07-25T10:05:44.453Z,100652.13
2022-07-25T10:08:13.845Z,100648.38
2022-07-25T10:10:44.210Z,100660.25
2022-07-25T10:13:18.248Z,100679.31
2022-07-25T10:15:50.294Z,100669.69
2022-07-25T10:18:19.999Z,100678.81
2022-07-25T10:20:50.276Z,100694.59
2022-07-25T10:23:21.141Z,100695.53
2022-07-25T10:26:00.788Z,100693.63
2022-07-25T10:28:41.810Z,100697.81
2022-07-25T10:31:18.953Z,100703.72
2022-07-25T10:33:52.289Z,100717.28
2022-07-25T10:36:22.244Z,100724.00
2022-07-25T10:38:54.031Z,100722.19
2022-07-25T10:41:26.822Z,100714.72
2022-07-25T10:44:01.388Z,100708.97
2022-07-25T10:46:36.814Z,100714.03
2022-07-25T10:49:07.262Z,100733.19
2022-07-25T10:51:41.623Z,100745.47
2022-07-25T10:54:15.686Z,100721.19
2022-07-25T10:56:54.296Z,100723.00
2022-07-25T10:59:34.339Z,100731.44
2022-07-25T11:02:03.923Z,100727.34
2022-07-25T11:04:33.122Z,100735.31
2022-07-25T11:07:10.200Z,100726.16
2022-07-25T11:09:39.278Z,100719.81
2022-07-25T11:12:08.559Z,100725.97
2022-07-25T11:14:41.843Z,100729.97
2022-07-25T11:17:18.850Z,100734.28
2022-07-25T11:19:57.496Z,100749.88
2022-07-25T11:22:28.726Z,100755.84
2022-07-25T11:24:58.099Z,100770.16
2022-07-25T11:27:29.741Z,100779.13
2022-07-25T11:30:09.703Z,100796.25
2022-07-25T11:32:43.265Z,100791.44
2022-07-25T11:35:13.397Z,100796.81
2022-07-25T11:37:44.770Z,100801.28
2022-07-25T11:40:16.478Z,100808.75
2022-07-25T11:42:46.753Z,100813.94
2022-07-25T11:45:21.779Z,100798.75
2022-07-25T11:47:52.077Z,100807.59
2022-07-25T11:50:31.789Z,100818.28
2022-07-25T11:53:02.237Z,100821.47
2022-07-25T11:55:33.024Z,100828.31
2022-07-25T11:58:03.665Z,100819.75
2022-07-25T12:00:37.490Z,100823.78
2022-07-25T12:03:09.264Z,100808.66
2022-07-25T12:05:38.570Z,100825.81
2022-07-25T12:08:11.721Z,100826.59
2022-07-25T12:10:43.557Z,100832.13
2022-07-25T12:13:23.280Z,100827.13
2022-07-25T12:15:55.200Z,100826.31
2022-07-25T12:18:23.821Z,100830.66
2022-07-25T12:20:53.321Z,100832.25
2022-07-25T12:23:22.737Z,100847.19
2022-07-25T12:25:52.059Z,100854.84
2022-07-25T12:28:20.632Z,100869.13
2022-07-25T12:30:56.666Z,100859.94
2022-07-25T12:33:26.692Z,100867.25
2022-07-25T12:35:55.351Z,100858.09
2022-07-25T12:38:24.016Z,100868.78
2022-07-25T12:40:52.516Z,100872.66
2022-07-25T12:43:21.064Z,100863.59
2022-07-25T12:45:50.177Z,100878.22
2022-07-25T12:48:20.689Z,100873.41
2022-07-25T12:50:49.129Z,100879.47
2022-07-25T12:53:18.478Z,100891.34
2022-07-25T12:55:47.043Z,100876.09
2022-07-25T12:58:15.377Z,100868.78
2022-07-25T13:00:44.044Z,100871.84
2022-07-25T13:03:12.627Z,100876.34
2022-07-25T13:05:42.734Z,100879.47
2022-07-25T13:08:11.400Z,100875.81
2022-07-25T13:10:39.962Z,100874.88
2022-07-25T13:13:08.472Z,100875.75
2022-07-25T13:15:37.496Z,100863.38
2022-07-25T13:18:06.457Z,100874.44
2022-07-25T13:20:37.666Z,100874.09
2022-07-25T13:23:08.492Z,100885.53
2022-07-25T13:25:37.133Z,100893.00
2022-07-25T13:28:10.851Z,100898.25
2022-07-25T13:30:40.499Z,100895.59
2022-07-25T13:33:10.351Z,100906.13
2022-07-25T13:35:39.601Z,100904.31
2022-07-25T13:38:12.994Z,100915.31
2022-07-25T13:40:42.414Z,100923.38
2022-07-25T13:43:11.522Z,100922.50
2022-07-25T13:45:41.011Z,100930.88
2022-07-25T13:51:00.706Z,100929.88
2022-07-25T13:53:31.002Z,100919.75
2022-07-25T13:56:00.520Z,100921.28
2022-07-25T13:58:29.558Z,100910.94
2022-07-25T14:00:58.097Z,100912.25
2022-07-25T14:03:27.926Z,100928.16
2022-07-25T14:05:56.603Z,100944.16
2022-07-25T14:08:26.827Z,100938.75
2022-07-25T14:10:56.997Z,100944.91
2022-07-25T14:13:25.780Z,100950.28
2022-07-25T14:15:54.415Z,100960.19
2022-07-25T14:18:23.028Z,100962.53
2022-07-25T14:20:52.129Z,100959.16
2022-07-25T14:23:20.438Z,100954.56
2022-07-25T14:25:48.971Z,100954.63
2022-07-25T14:28:19.001Z,100969.88
2022-07-25T14:30:47.617Z,100967.91
2022-07-25T14:33:15.943Z,100975.41
2022-07-25T14:35:44.629Z,100979.59
2022-07-25T14:38:13.094Z,100983.44
2022-07-25T14:40:43.748Z,100991.00
2022-07-25T14:43:12.069Z,100992.41
2022-07-25T14:45:42.473Z,100998.00
2022-07-25T14:48:11.099Z,100980.06
2022-07-25T14:50:39.851Z,100990.47
2022-07-25T14:53:08.451Z,100992.44
2022-07-25T14:55:38.555Z,101006.13
2022-07-25T14:58:07.073Z,100995.22
2022-07-25T15:00:35.790Z,101007.50
2022-07-25T15:03:05.914Z,100999.72
2022-07-25T15:05:35.764Z,101005.78
2022-07-25T15:08:04.372Z,101001.06
2022-07-25T15:10:32.894Z,100999.56
2022-07-25T15:13:29.337Z,101005.97
2022-07-25T15:15:50.624Z,101011.03
2022-07-25T15:18:20.653Z,101016.63
2022-07-25T15:20:48.980Z,101027.63
2022-07-25T15:23:17.271Z,101017.84
2022-07-25T15:26:01.361Z,101030.13
2022-07-25T15:28:31.441Z,101023.34
2022-07-25T15:30:59.947Z,101036.53
2022-07-25T15:33:30.045Z,101034.88
2022-07-25T15:35:59.672Z,101047.94
2022-07-25T15:38:29.178Z,101053.63
2022-07-25T15:40:59.254Z,101060.66
2022-07-25T15:43:27.773Z,101065.22
2022-07-25T15:45:56.278Z,101060.78
2022-07-25T15:48:25.232Z,101047.75
2022-07-25T15:50:56.150Z,101054.00
2022-07-25T15:53:24.955Z,101060.47
2022-07-25T15:55:53.372Z,101063.22
2022-07-25T15:58:21.840Z,101057.88
2022-07-25T16:00:50.620Z,101070.72
2022-07-25T16:03:20.764Z,101066.28
2022-07-25T16:05:49.601Z,101080.00
2022-07-25T16:08:21.411Z,101071.03
2022-07-25T16:10:50.099Z,101079.78
2022-07-25T16:13:19.495Z,101080.47
2022-07-25T16:15:47.995Z,101091.50
2022-07-25T16:18:16.453Z,101091.69
2022-07-25T16:20:45.370Z,101103.88
2022-07-25T16:23:13.991Z,101098.66
2022-07-25T16:25:44.976Z,101109.56
2022-07-25T16:28:13.658Z,101103.75
2022-07-25T16:30:42.476Z,101114.13
2022-07-25T16:33:12.217Z,101125.16
2022-07-25T16:35:41.058Z,101117.72
2022-07-25T16:38:09.952Z,101122.56
2022-07-25T16:40:38.680Z,101130.56
2022-07-25T16:43:08.701Z,101138.28
2022-07-25T16:45:38.063Z,101141.91
2022-07-25T16:48:08.079Z,101144.44
2022-07-25T16:50:36.674Z,101148.50
2022-07-25T16:53:05.045Z,101144.94
2022-07-25T16:55:34.323Z,101142.41
2022-07-25T16:58:02.697Z,101142.25
2022-07-25T17:00:32.746Z,101147.06
2022-07-25T17:03:01.744Z,101148.00
2022-07-25T17:05:30.740Z,101145.94
2022-07-25T17:07:59.909Z,101154.81
2022-07-25T17:10:30.186Z,101163.06
2022-07-25T17:12:59.162Z,101167.00
2022-07-25T17:15:29.975Z,101176.22
2022-07-25T17:18:00.850Z,101164.63
2022-07-25T17:20:29.371Z,101179.19
2022-07-25T17:22:57.984Z,101175.06
2022-07-25T17:25:26.413Z,101200.22
2022-07-25T17:27:55.908Z,101209.38
2022-07-25T17:30:24.885Z,101202.19
2022-07-25T17:32:53.732Z,101200.94
2022-07-25T17:35:23.751Z,101202.19
2022-07-25T17:37:52.262Z,101216.03
2022-07-25T17:40:21.262Z,101212.47
2022-07-25T17:42:50.316Z,101226.94
2022-07-25T17:45:19.274Z,101229.31
2022-07-25T17:47:48.097Z,101235.94
2022-07-25T17:50:17.249Z,101234.50
2022-07-25T17:52:47.590Z,101242.88
2022-07-25T17:55:16.161Z,101253.81
2022-07-25T17:57:46.072Z,101248.75
2022-07-25T18:00:15.871Z,101259.75
2022-07-25T18:02:44.551Z,101260.91
2022-07-25T18:05:13.254Z,101258.53
2022-07-25T18:07:45.918Z,101266.09
2022-07-25T18:10:16.900Z,101269.06
2022-07-25T18:12:46.062Z,101278.69
2022-07-25T18:15:15.638Z,101269.75
2022-07-25T18:17:45.278Z,101275.72
2022-07-25T18:20:15.263Z,101283.09
2022-07-25T18:22:43.724Z,101277.91
2022-07-25T18:25:14.671Z,101285.81
2022-07-25T18:27:45.497Z,101287.09
2022-07-25T18:30:16.156Z,101291.88
2022-07-25T18:32:45.978Z,101295.69
2022-07-25T18:35:15.106Z,101296.41
2022-07-25T18:37:44.178Z,101292.47
2022-07-25T18:40:14.181Z,101302.69
2022-07-25T18:42:42.840Z,101303.94
2022-07-25T18:45:14.532Z,101304.50
2022-07-25T18:47:43.125Z,101304.19
2022-07-25T18:50:13.481Z,101305.97
2022-07-25T18:52:42.166Z,101303.88
2022-07-25T18:55:11.613Z,101307.94
2022-07-25T18:57:40.402Z,101312.03
2022-07-25T19:00:11.187Z,101316.94
2022-07-25T19:02:41.040Z,101319.09
2022-07-25T19:05:10.834Z,101314.34
2022-07-25T19:07:40.447Z,101323.50
2022-07-25T19:10:10.363Z,101334.34
2022-07-25T19:12:38.888Z,101336.88
2022-07-25T19:15:08.558Z,101338.28
2022-07-25T19:17:38.412Z,101334.47
2022-07-25T19:20:10.787Z,101347.69
2022-07-25T19:22:39.267Z,101342.91
2022-07-25T19:25:08.941Z,101350.50
2022-07-25T19:27:37.491Z,101354.00
2022-07-25T19:30:07.429Z,101365.25
2022-07-25T19:32:36.712Z,101361.59
2022-07-25T19:35:09.244Z,101371.44
2022-07-25T19:37:38.094Z,101375.34
2022-07-25T19:40:08.961Z,101373.22
2022-07-25T19:42:37.760Z,101387.94
2022-07-25T19:45:07.784Z,101382.91
2022-07-25T19:47:36.424Z,101390.19
2022-07-25T19:50:05.107Z,101392.75
2022-07-25T19:52:35.704Z,101398.34
2022-07-25T19:55:04.397Z,101402.53
2022-07-25T19:57:33.955Z,101405.34
2022-07-25T20:00:02.579Z,101419.09
2022-07-25T20:02:31.329Z,101415.00
2022-07-25T20:05:00.162Z,101416.00
2022-07-25T20:07:29.681Z,101417.38
2022-07-25T20:09:59.836Z,101419.47
2022-07-25T20:12:28.222Z,101427.06
2022-07-25T20:14:56.897Z,101437.84
2022-07-25T20:17:25.708Z,101438.38
2022-07-25T20:19:54.361Z,101434.72
2022-07-25T20:22:23.059Z,101440.63
2022-07-25T20:24:51.541Z,101445.84
2022-07-25T20:27:21.486Z,101442.44
2022-07-25T20:29:49.935Z,101446.47
2022-07-25T20:32:19.806Z,101454.72
2022-07-25T20:34:48.565Z,101455.16
2022-07-25T20:37:16.990Z,101455.84
2022-07-25T20:39:45.470Z,101459.34
2022-07-25T20:42:17.045Z,101466.78
2022-07-25T20:44:52.619Z,101467.88
2022-07-25T20:47:21.175Z,101472.50
2022-07-25T20:49:49.993Z,101469.50
2022-07-25T20:52:18.663Z,101474.97
2022-07-25T20:54:47.330Z,101476.34
2022-07-25T20:57:15.928Z,101472.16
2022-07-25T20:59:44.597Z,101486.84
2022-07-25T21:02:17.532Z,101479.16
2022-07-25T21:04:48.773Z,101483.03
2022-07-25T21:07:20.212Z,101488.00
2022-07-25T21:09:48.876Z,101485.19
2022-07-25T21:12:18.671Z,101493.56
2022-07-25T21:14:52.176Z,101491.59
2022-07-25T21:17:22.246Z,101495.38
2022-07-25T21:19:52.813Z,101501.19
2022-07-25T21:22:22.665Z,101497.16
2022-07-25T21:24:51.491Z,101504.06
2022-07-25T21:27:20.002Z,101499.00
2022-07-25T21:29:49.037Z,101498.41
2022-07-25T21:32:17.778Z,101498.75
2022-07-25T21:34:50.255Z,101500.72
2022-07-25T21:37:19.406Z,101505.28
2022-07-25T21:39:47.901Z,101508.69
2022-07-25T21:42:16.623Z,101516.16
2022-07-25T21:44:47.372Z,101520.28
2022-07-25T21:47:16.121Z,101520.59
2022-07-25T21:50:01.927Z,101518.81
2022-07-25T21:52:35.273Z,101519.91
2022-07-25T21:55:05.115Z,101536.78
2022-07-25T21:57:33.757Z,101550.13
2022-07-25T22:00:02.504Z,101551.91
2022-07-25T22:02:32.167Z,101549.72
2022-07-25T22:05:00.536Z,101551.06
2022-07-25T22:07:30.361Z,101555.78
2022-07-25T22:10:00.607Z,101555.47
2022-07-25T22:12:29.264Z,101562.34
2022-07-25T22:14:57.880Z,101555.59
2022-07-25T22:17:27.538Z,101559.47
2022-07-25T22:20:16.237Z,101569.13
2022-07-25T22:22:45.814Z,101569.97
2022-07-25T22:25:17.305Z,101570.56
2022-07-25T22:27:46.510Z,101575.41
2022-07-25T22:30:19.247Z,101578.66
2022-07-25T22:32:49.210Z,101582.56
2022-07-25T22:35:18.542Z,101581.81
2022-07-25T22:37:48.138Z,101588.44
2022-07-25T22:40:18.150Z,101603.09
2022-07-25T22:42:48.365Z,101591.47
2022-07-25T22:45:20.549Z,101590.25
2022-07-25T22:47:52.030Z,101594.97
2022-07-25T22:50:20.710Z,101585.91
2022-07-25T22:52:49.753Z,101590.91
2022-07-25T22:55:20.535Z,101587.00
2022-07-25T22:57:51.012Z,101586.28
2022-07-25T23:00:19.839Z,101594.84
2022-07-25T23:02:50.363Z,101594.13
2022-07-25T23:05:19.176Z,101598.47
2022-07-25T23:07:47.575Z,101596.66
2022-07-25T23:10:17.122Z,101601.34
2022-07-25T23:12:48.004Z,101607.66
2022-07-25T23:15:19.636Z,101601.34
2022-07-25T23:17:48.052Z,101604.38
2022-07-25T23:20:18.722Z,101603.91
2022-07-25T23:22:48.627Z,101605.59
2022-07-25T23:25:21.888Z,101608.97
2022-07-25T23:27:54.205Z,101614.44
2022-07-25T23:30:22.968Z,101621.16
2022-07-25T23:32:52.920Z,101617.19
2022-07-25T23:35:21.544Z,101617.31
2022-07-25T23:37:49.964Z,101624.31
2022-07-25T23:40:19.678Z,101621.75
2022-07-25T23:42:48.304Z,101629.50
2022-07-25T23:45:40.105Z,101620.53
2022-07-25T23:48:09.929Z,101628.75
2022-07-25T23:50:39.581Z,101631.28
2022-07-25T23:53:08.544Z,101638.91
2022-07-25T23:55:39.154Z,101639.13
2022-07-25T23:58:07.740Z,101643.84
